Aviation Digital Data Service (ADDS)

Output produced by METARs form (0634 UTC 03 July 2022)
found at http://www.aviationweather.gov/metar/data/
 
Forecast for: KCPS (CAHOKIA/ST LOUIS, IL, US)
Text: KCPS 030530Z 0306/0406 VRB04KT P6SM BKN050
Forecast period: 0600 to 2000 UTC 03 July 2022
Forecast type: FROM: standard forecast or significant change
Winds: variable direction winds at 5 MPH (4 knots; 2.1 m/s)
Visibility: 6 or more miles (10+ km)
Ceiling: 5000 feet AGL
Clouds: broken clouds at 5000 feet AGL
Weather: no significant weather forecast for this period
Text: TEMPO 0306/0308 2SM SHRA OVC030
Forecast period: 0600 to 0800 UTC 03 July 2022
Forecast type: TEMPORARY: The following changes expected for less than half the time period
Visibility: 2.00 miles (3.22 km)
Ceiling: 3000 feet AGL
Clouds: overcast cloud deck at 3000 feet AGL
Weather: SHRA  (rain showers)
Text: FM032000 12006KT P6SM SCT250
Forecast period: 2000 UTC 03 July 2022 to 0600 UTC 04 July 2022
Forecast type: FROM: standard forecast or significant change
Winds: from the ESE (120 degrees) at 7 MPH (6 knots; 3.1 m/s)
Visibility: 6 or more miles (10+ km)
Ceiling: at least 12,000 feet AGL
Clouds: scattered clouds at 25000 feet AGL
Weather: no significant weather forecast for this period